EST,Max TemperatureF,Mean TemperatureF,Min TemperatureF,Max Dew PointF,MeanDew PointF,Min DewpointF,Max Humidity, Mean Humidity, Min Humidity, Max Sea Level PressureIn, Mean Sea Level PressureIn, Min Sea Level PressureIn, Max VisibilityMiles, Mean VisibilityMiles, Min VisibilityMiles, Max Wind SpeedMPH, Mean Wind SpeedMPH, Max Gust SpeedMPH,PrecipitationIn, CloudCover, Events, WindDirDegrees
2012-12-1,77,64,50,57,52,46,88,76,44,30.30,30.26,30.22,10,9,1,9,3,,0.00,1,,33
2012-12-2,80,66,53,57,54,50,88,76,37,30.33,30.27,30.23,10,8,1,7,3,,0.00,1,,50
2012-12-3,78,68,57,61,56,52,88,79,47,30.32,30.27,30.22,10,7,0,7,1,,0.00,4,,51
2012-12-4,78,64,51,55,49,46,88,69,32,30.33,30.26,30.22,10,9,1,9,2,12,0.00,0,,58
2012-12-5,78,64,50,55,51,45,88,75,39,30.24,30.15,30.08,10,10,1,9,3,,0.00,1,,45
2012-12-6,78,69,60,59,56,54,88,76,42,30.09,30.05,29.97,10,7,1,9,4,,0.00,5,,44
2012-12-7,73,66,60,66,57,55,88,78,57,30.06,30.01,29.96,10,8,2,8,5,,0.00,6,,38
2012-12-8,73,65,57,63,58,54,94,83,65,30.09,30.05,30.01,10,5,0,7,3,,0.00,6,Fog,66
2012-12-9,77,68,59,64,61,55,88,83,57,30.12,30.06,30.03,10,6,0,8,2,,0.12,6,Fog,10
2012-12-10,77,65,53,68,58,48,94,83,65,30.05,29.95,29.84,10,5,0,16,3,29,0.07,7,Fog-Rain,207
2012-12-11,77,70,64,63,62,59,88,79,61,30.04,29.95,29.87,10,6,0,9,4,,0.01,6,Fog,198
2012-12-12,69,64,59,63,56,52,83,74,68,30.11,30.06,30.00,10,5,1,10,3,16,0.02,8,Rain,16
2012-12-13,60,55,50,52,47,41,77,71,63,30.26,30.17,30.10,10,7,2,13,8,,0.00,8,,3
2012-12-14,60,54,48,46,43,41,76,71,59,30.28,30.22,30.16,10,6,1,12,8,,0.00,7,,21
2012-12-15,78,64,51,55,49,43,77,66,42,30.18,30.12,30.07,10,10,7,6,3,,0.00,3,,53
2012-12-16,78,66,53,55,49,45,77,67,42,30.08,30.03,29.96,10,8,0,13,2,,0.00,1,,235
2012-12-17,80,68,55,61,54,46,77,68,42,29.99,29.92,29.84,10,10,5,20,4,28,0.00,3,,199
2012-12-18,77,62,44,61,53,36,93,69,25,30.05,29.95,29.88,10,10,10,14,6,18,0.00,4,,240
2012-12-19,75,56,37,46,40,34,100,74,22,30.15,30.08,30.05,10,10,10,5,1,,0.00,0,,106
2012-12-20,80,63,46,66,54,43,94,81,51,30.09,30.01,29.89,10,9,1,22,5,29,0.43,3,Thunderstorm,221
2012-12-21,64,53,42,55,29,18,73,47,23,30.23,30.12,29.97,10,10,10,20,11,28,0.00,0,,303
2012-12-22,60,46,32,28,20,16,81,48,17,30.32,30.25,30.22,10,10,10,12,5,,0.00,0,,308
2012-12-23,66,46,26,37,28,18,93,66,15,30.29,30.22,30.16,10,10,10,6,0,,0.00,0,,213
2012-12-24,69,56,42,48,42,37,87,66,40,30.16,30.08,30.00,10,10,10,18,2,22,0.00,2,,184
2012-12-25,73,62,51,55,51,46,88,72,47,30.03,29.97,29.89,10,10,10,15,5,,0.00,1,,169
2012-12-26,71,58,42,63,49,30,82,68,52,30.03,29.88,29.77,10,10,10,25,11,34,0.00,3,,222
2012-12-27,60,46,32,37,31,27,87,70,39,30.15,30.07,30.02,10,10,5,10,4,,0.00,0,,301
2012-12-28,66,50,33,57,38,28,87,72,35,30.13,30.04,29.92,10,7,0,8,2,,0.06,4,,135
2012-12-29,71,58,44,66,53,32,88,73,50,30.22,29.97,29.83,10,8,3,23,11,30,0.72,5,Rain-Thunderstorm,235
2012-12-30,55,44,33,34,30,27,81,65,35,30.41,30.33,30.22,10,10,10,14,8,22,0.00,1,,355
2012-12-31,71,54,37,48,40,30,87,73,43,30.41,30.31,30.22,10,10,9,8,3,,0.00,1,,25